createdAt,value
2022-08-28T00:02:24.922Z,100357.00
2022-08-28T00:04:51.838Z,100359.00
2022-08-28T00:07:19.348Z,100358.00
2022-08-28T00:09:45.944Z,100365.00
2022-08-28T00:12:12.660Z,100362.00
2022-08-28T00:14:39.321Z,100361.00
2022-08-28T00:17:05.999Z,100368.00
2022-08-28T00:19:37.917Z,100368.00
2022-08-28T00:22:05.598Z,100376.00
2022-08-28T00:24:32.126Z,100371.00
2022-08-28T00:27:17.044Z,100371.00
2022-08-28T00:29:45.998Z,100373.00
2022-08-28T00:32:13.743Z,100380.00
2022-08-28T00:34:40.473Z,100380.00
2022-08-28T00:37:07.355Z,100369.00
2022-08-28T00:39:34.026Z,100378.00
2022-08-28T00:42:00.588Z,100372.00
2022-08-28T00:44:28.680Z,100374.00
2022-08-28T00:46:57.292Z,100371.00
2022-08-28T00:49:32.765Z,100376.00
2022-08-28T00:52:12.253Z,100371.00
2022-08-28T00:54:58.410Z,100365.00
2022-08-28T00:57:30.510Z,100373.00
2022-08-28T00:59:57.398Z,100371.00
2022-08-28T01:02:24.494Z,100367.00
2022-08-28T01:04:51.236Z,100375.00
2022-08-28T01:07:18.081Z,100364.00
2022-08-28T01:09:47.687Z,100367.00
2022-08-28T01:12:21.194Z,100366.00
2022-08-28T01:14:49.919Z,100366.00
2022-08-28T01:17:18.187Z,100368.00
2022-08-28T01:19:58.285Z,100367.00
2022-08-28T01:22:41.531Z,100366.00
2022-08-28T01:25:12.230Z,100362.00
2022-08-28T01:27:41.826Z,100364.00
2022-08-28T01:30:15.277Z,100370.00
2022-08-28T01:32:48.133Z,100373.00
2022-08-28T01:35:20.249Z,100370.00
2022-08-28T01:37:47.412Z,100370.00
2022-08-28T01:40:17.632Z,100376.00
2022-08-28T01:42:44.825Z,100372.00
2022-08-28T01:45:15.501Z,100371.00
2022-08-28T01:47:44.074Z,100380.00
2022-08-28T01:50:13.428Z,100371.00
2022-08-28T01:52:40.443Z,100380.00
2022-08-28T01:55:08.457Z,100375.00
2022-08-28T01:57:35.387Z,100373.00
2022-08-28T02:00:02.303Z,100370.00
2022-08-28T02:02:38.628Z,100369.00
2022-08-28T02:05:05.569Z,100369.00
2022-08-28T02:07:32.158Z,100370.00
2022-08-28T02:09:58.694Z,100363.00
2022-08-28T02:12:25.493Z,100369.00
2022-08-28T02:14:56.184Z,100375.00
2022-08-28T02:17:24.074Z,100372.00
2022-08-28T02:19:51.697Z,100375.00
2022-08-28T02:22:18.460Z,100379.00
2022-08-28T02:24:45.321Z,100370.00
2022-08-28T02:27:11.955Z,100375.00
2022-08-28T02:29:42.349Z,100368.00
2022-08-28T02:32:12.465Z,100371.00
2022-08-28T02:34:40.222Z,100374.00
2022-08-28T02:37:08.737Z,100367.00
2022-08-28T02:39:35.382Z,100375.00
2022-08-28T02:42:02.007Z,100376.00
2022-08-28T02:44:28.591Z,100380.00
2022-08-28T02:46:55.225Z,100365.00
2022-08-28T02:49:25.741Z,100374.00
2022-08-28T02:51:58.608Z,100384.00
2022-08-28T02:54:26.398Z,100378.00
2022-08-28T02:56:54.712Z,100387.00
2022-08-28T02:59:21.401Z,100382.00
2022-08-28T03:01:48.477Z,100378.00
2022-08-28T03:04:15.123Z,100383.00
2022-08-28T03:06:42.015Z,100382.00
2022-08-28T03:09:08.623Z,100383.00
2022-08-28T03:11:36.598Z,100382.00
2022-08-28T03:14:04.790Z,100389.00
2022-08-28T03:16:32.639Z,100389.00
2022-08-28T03:18:59.472Z,100384.00
2022-08-28T03:21:25.991Z,100392.00
2022-08-28T03:23:52.513Z,100393.00
2022-08-28T03:26:20.423Z,100385.00
2022-08-28T03:28:49.495Z,100394.00
2022-08-28T03:31:19.689Z,100392.00
2022-08-28T03:33:47.582Z,100390.00
2022-08-28T03:36:17.626Z,100391.00
2022-08-28T03:38:44.238Z,100391.00
2022-08-28T03:41:12.520Z,100393.00
2022-08-28T03:43:40.061Z,100385.00
2022-08-28T03:46:07.441Z,100402.00
2022-08-28T03:48:36.477Z,100394.00
2022-08-28T03:51:07.850Z,100386.00
2022-08-28T03:53:34.963Z,100399.00
2022-08-28T03:56:06.088Z,100393.00
2022-08-28T03:58:32.668Z,100399.00
2022-08-28T04:00:59.366Z,100393.00
2022-08-28T04:03:26.054Z,100401.00
2022-08-28T04:05:52.787Z,100403.00
2022-08-28T04:08:20.934Z,100405.00
2022-08-28T04:10:47.848Z,100418.00
2022-08-28T04:13:16.113Z,100409.00
2022-08-28T04:15:43.024Z,100417.00
2022-08-28T04:18:10.560Z,100421.00
2022-08-28T04:20:37.278Z,100416.00
2022-08-28T04:23:04.329Z,100409.00
2022-08-28T04:25:31.495Z,100409.00
2022-08-28T04:27:58.165Z,100414.00
2022-08-28T04:33:02.696Z,100418.00
2022-08-28T04:35:29.461Z,100428.00
2022-08-28T04:37:58.841Z,100430.00
2022-08-28T04:40:26.087Z,100427.00
2022-08-28T04:42:52.652Z,100437.00
2022-08-28T04:45:19.188Z,100442.00
2022-08-28T04:47:45.700Z,100434.00
2022-08-28T04:50:12.426Z,100440.00
2022-08-28T04:52:39.199Z,100441.00
2022-08-28T04:55:06.404Z,100445.00
2022-08-28T04:57:36.216Z,100446.00
2022-08-28T05:00:05.401Z,100445.00
2022-08-28T05:02:31.998Z,100441.00
2022-08-28T05:04:58.870Z,100444.00
2022-08-28T05:07:25.518Z,100441.00
2022-08-28T05:09:55.142Z,100440.00
2022-08-28T05:12:22.138Z,100449.00
2022-08-28T05:14:49.451Z,100446.00
2022-08-28T05:17:15.950Z,100445.00
2022-08-28T05:19:42.563Z,100447.00
2022-08-28T05:22:12.197Z,100443.00
2022-08-28T05:24:39.977Z,100451.00
2022-08-28T05:27:07.277Z,100458.00
2022-08-28T05:29:33.829Z,100461.00
2022-08-28T05:32:00.553Z,100455.00
2022-08-28T05:34:27.221Z,100458.00
2022-08-28T05:36:54.119Z,100458.00
2022-08-28T05:39:20.924Z,100463.00
2022-08-28T05:41:47.554Z,100466.00
2022-08-28T05:44:16.118Z,100465.00
2022-08-28T05:46:46.775Z,100461.00
2022-08-28T05:49:14.291Z,100461.00
2022-08-28T05:51:42.004Z,100458.00
2022-08-28T05:54:08.916Z,100455.00
2022-08-28T05:56:38.507Z,100458.00
2022-08-28T05:59:06.571Z,100461.00
2022-08-28T06:01:37.035Z,100463.00
2022-08-28T06:04:13.227Z,100460.00
2022-08-28T06:06:41.106Z,100470.00
2022-08-28T06:09:26.611Z,100471.00
2022-08-28T06:11:58.657Z,100458.00
2022-08-28T06:14:25.768Z,100464.00
2022-08-28T06:16:54.763Z,100462.00
2022-08-28T06:19:23.160Z,100462.00
2022-08-28T06:21:53.624Z,100467.00
2022-08-28T06:24:20.311Z,100472.00
2022-08-28T06:26:47.130Z,100476.00
2022-08-28T06:29:21.167Z,100477.00
2022-08-28T06:31:56.790Z,100473.00
2022-08-28T06:34:23.456Z,100485.00
2022-08-28T06:36:53.830Z,100484.00
2022-08-28T06:39:21.226Z,100481.00
2022-08-28T06:41:47.848Z,100481.00
2022-08-28T06:44:21.420Z,100482.00
2022-08-28T06:46:50.090Z,100490.00
2022-08-28T06:49:16.667Z,100486.00
2022-08-28T06:51:43.709Z,100494.00
2022-08-28T06:54:10.749Z,100491.00
2022-08-28T06:56:37.890Z,100503.00
2022-08-28T06:59:05.056Z,100499.00
2022-08-28T07:01:34.778Z,100507.00
2022-08-28T07:04:05.809Z,100505.00
2022-08-28T07:06:38.206Z,100507.00
2022-08-28T07:09:07.209Z,100513.00
2022-08-28T07:11:35.204Z,100513.00
2022-08-28T07:14:02.914Z,100516.00
2022-08-28T07:16:39.447Z,100519.00
2022-08-28T07:19:11.159Z,100522.00
2022-08-28T07:21:39.823Z,100529.00
2022-08-28T07:24:08.396Z,100534.00
2022-08-28T07:26:35.929Z,100532.00
2022-08-28T07:29:10.065Z,100532.00
2022-08-28T07:31:40.642Z,100535.00
2022-08-28T07:34:07.403Z,100534.00
2022-08-28T07:36:34.928Z,100533.00
2022-08-28T07:39:01.528Z,100533.00
2022-08-28T07:41:32.586Z,100547.00
2022-08-28T07:44:18.365Z,100544.00
2022-08-28T07:46:45.434Z,100551.00
2022-08-28T07:49:13.216Z,100547.00
2022-08-28T07:51:39.805Z,100555.00
2022-08-28T07:54:06.841Z,100547.00
2022-08-28T07:56:41.307Z,100553.00
2022-08-28T07:59:10.462Z,100550.00
2022-08-28T08:01:39.949Z,100553.00
2022-08-28T08:04:07.899Z,100554.00
2022-08-28T08:06:35.294Z,100563.00
2022-08-28T08:09:02.373Z,100562.00
2022-08-28T08:11:32.283Z,100568.00
2022-08-28T08:14:04.718Z,100568.00
2022-08-28T08:16:34.732Z,100567.00
2022-08-28T08:19:01.823Z,100564.00
2022-08-28T08:21:30.424Z,100570.00
2022-08-28T08:23:57.488Z,100575.00
2022-08-28T08:26:25.782Z,100569.00
2022-08-28T08:28:52.439Z,100568.00
2022-08-28T08:31:24.645Z,100571.00
2022-08-28T08:33:54.070Z,100578.00
2022-08-28T08:36:24.962Z,100566.00
2022-08-28T08:38:59.705Z,100582.00
2022-08-28T08:41:29.421Z,100575.00
2022-08-28T08:43:57.691Z,100586.00
2022-08-28T08:46:47.005Z,100575.00
2022-08-28T08:49:19.145Z,100583.00
2022-08-28T08:52:02.594Z,100582.00
2022-08-28T08:54:29.243Z,100592.00
2022-08-28T08:56:56.208Z,100595.00
2022-08-28T08:59:26.043Z,100598.00
2022-08-28T09:02:01.961Z,100593.00
2022-08-28T09:04:32.180Z,100603.00
2022-08-28T09:07:13.785Z,100604.00
2022-08-28T09:09:44.933Z,100602.00
2022-08-28T09:12:17.414Z,100603.00
2022-08-28T09:15:08.910Z,100602.00
2022-08-28T09:17:41.348Z,100606.00
2022-08-28T09:20:11.131Z,100615.00
2022-08-28T09:22:42.667Z,100611.00
2022-08-28T09:25:11.924Z,100612.00
2022-08-28T09:27:52.689Z,100618.00
2022-08-28T09:30:29.633Z,100624.00
2022-08-28T09:33:01.244Z,100617.00
2022-08-28T09:35:30.496Z,100621.00
2022-08-28T09:38:18.041Z,100620.00
2022-08-28T09:41:03.349Z,100617.00
2022-08-28T09:43:31.419Z,100616.00
2022-08-28T09:46:20.137Z,100621.00
2022-08-28T09:48:48.303Z,100616.00
2022-08-28T09:51:20.668Z,100624.00
2022-08-28T09:53:59.918Z,100633.00
2022-08-28T09:56:33.940Z,100630.00
2022-08-28T09:59:03.317Z,100631.00
2022-08-28T10:01:45.127Z,100636.00
2022-08-28T10:04:43.034Z,100640.00
2022-08-28T10:07:17.704Z,100636.00
2022-08-28T10:10:17.931Z,100631.00
2022-08-28T10:12:52.396Z,100638.00
2022-08-28T10:15:27.055Z,100646.00
2022-08-28T10:18:32.852Z,100642.00
2022-08-28T10:21:07.875Z,100640.00
2022-08-28T10:24:05.298Z,100632.00
2022-08-28T10:26:31.816Z,100635.00
2022-08-28T10:29:16.592Z,100648.00
2022-08-28T10:32:03.646Z,100644.00
2022-08-28T10:34:54.849Z,100653.00
2022-08-28T10:37:45.567Z,100654.00
2022-08-28T10:40:22.241Z,100654.00
2022-08-28T10:42:55.884Z,100655.00
2022-08-28T10:45:24.478Z,100657.00
2022-08-28T10:47:53.203Z,100665.00
2022-08-28T10:50:25.378Z,100661.00
2022-08-28T10:53:03.477Z,100666.00
2022-08-28T10:55:36.690Z,100670.00
2022-08-28T10:58:24.242Z,100672.00
2022-08-28T11:01:02.250Z,100683.00
2022-08-28T11:03:35.559Z,100676.00
2022-08-28T11:06:28.717Z,100681.00
2022-08-28T11:08:58.321Z,100681.00
2022-08-28T11:12:15.728Z,100687.00
2022-08-28T11:14:47.501Z,100686.00
2022-08-28T11:17:30.333Z,100697.00
2022-08-28T11:19:59.890Z,100693.00
2022-08-28T11:22:44.741Z,100692.00
2022-08-28T11:25:15.360Z,100701.00
2022-08-28T11:28:14.730Z,100702.00
2022-08-28T11:30:42.784Z,100686.00
2022-08-28T11:33:34.042Z,100698.00
2022-08-28T11:36:00.620Z,100696.00
2022-08-28T11:38:42.175Z,100699.00
2022-08-28T11:41:22.372Z,100695.00
2022-08-28T11:43:52.448Z,100702.00
2022-08-28T11:46:31.283Z,100704.00
2022-08-28T11:49:00.110Z,100702.00
2022-08-28T11:51:32.862Z,100699.00
2022-08-28T11:54:13.662Z,100703.00
2022-08-28T11:57:08.177Z,100698.00
2022-08-28T11:59:40.960Z,100700.00
2022-08-28T12:02:43.659Z,100695.00
2022-08-28T12:05:32.450Z,100701.00
2022-08-28T12:08:01.186Z,100696.00
2022-08-28T12:10:27.942Z,100690.00
2022-08-28T12:12:59.586Z,100688.00
2022-08-28T12:15:29.678Z,100691.00
2022-08-28T12:18:11.650Z,100688.00
2022-08-28T12:20:53.029Z,100688.00
2022-08-28T12:23:59.149Z,100695.00
2022-08-28T12:26:39.813Z,100689.00
2022-08-28T12:29:17.978Z,100701.00
2022-08-28T12:32:14.492Z,100703.00
2022-08-28T12:34:44.217Z,100700.00
2022-08-28T12:37:51.572Z,100702.00
2022-08-28T12:40:26.100Z,100705.00
2022-08-28T12:42:58.669Z,100704.00
2022-08-28T12:45:44.547Z,100710.00
2022-08-28T12:48:22.634Z,100697.00
2022-08-28T12:51:06.359Z,100695.00
2022-08-28T12:53:43.669Z,100699.00
2022-08-28T12:56:12.481Z,100691.00
2022-08-28T12:58:41.030Z,100696.00
2022-08-28T13:01:16.931Z,100695.00
2022-08-28T13:03:51.660Z,100700.00
2022-08-28T13:06:24.269Z,100701.00
2022-08-28T13:09:14.049Z,100697.00
2022-08-28T13:11:46.024Z,100701.00
2022-08-28T13:14:12.563Z,100702.00
2022-08-28T13:16:40.443Z,100698.00
2022-08-28T13:19:06.996Z,100696.00
2022-08-28T13:21:39.374Z,100699.00
2022-08-28T13:24:24.036Z,100706.00
2022-08-28T13:27:04.794Z,100701.00
2022-08-28T13:29:32.324Z,100684.00
2022-08-28T13:32:10.145Z,100694.00
2022-08-28T13:34:38.580Z,100691.00
2022-08-28T13:37:47.991Z,100695.00
2022-08-28T13:40:53.538Z,100697.00
2022-08-28T13:43:11.058Z,100685.00
2022-08-28T13:45:42.964Z,100692.00
2022-08-28T13:48:20.546Z,100694.00
2022-08-28T13:50:52.952Z,100698.00
2022-08-28T13:53:20.598Z,100693.00
2022-08-28T13:55:51.835Z,100689.00
2022-08-28T13:58:19.051Z,100700.00
2022-08-28T14:00:48.516Z,100701.00
2022-08-28T14:03:34.364Z,100699.00
2022-08-28T14:06:07.454Z,100700.00
2022-08-28T14:08:37.225Z,100694.00
2022-08-28T14:11:04.694Z,100693.00
2022-08-28T14:13:31.621Z,100695.00
2022-08-28T14:16:00.668Z,100686.00
2022-08-28T14:18:28.040Z,100696.00
2022-08-28T14:20:57.172Z,100693.00
2022-08-28T14:23:23.766Z,100685.00
2022-08-28T14:25:50.484Z,100685.00
2022-08-28T14:28:17.621Z,100689.00
2022-08-28T14:30:49.012Z,100675.00
2022-08-28T14:33:18.673Z,100677.00
2022-08-28T14:35:47.329Z,100665.00
2022-08-28T14:38:16.891Z,100677.00
2022-08-28T14:40:53.254Z,100664.00
2022-08-28T14:43:21.473Z,100667.00
2022-08-28T14:45:53.358Z,100660.00
2022-08-28T14:48:22.867Z,100663.00
2022-08-28T14:50:49.958Z,100662.00
2022-08-28T14:53:17.160Z,100676.00
2022-08-28T14:55:48.539Z,100678.00
2022-08-28T14:58:19.160Z,100670.00
2022-08-28T15:00:49.409Z,100667.00
2022-08-28T15:03:18.079Z,100668.00
2022-08-28T15:05:44.580Z,100677.00
2022-08-28T15:08:16.914Z,100668.00
2022-08-28T15:10:44.042Z,100672.00
2022-08-28T15:13:13.468Z,100670.00
2022-08-28T15:15:42.550Z,100667.00
2022-08-28T15:18:10.379Z,100668.00
2022-08-28T15:20:44.933Z,100664.00
2022-08-28T15:23:12.591Z,100660.00
2022-08-28T15:25:39.417Z,100662.00
2022-08-28T15:28:15.306Z,100664.00
2022-08-28T15:30:43.591Z,100660.00
2022-08-28T15:33:10.366Z,100661.00
2022-08-28T15:35:37.214Z,100659.00
2022-08-28T15:38:05.318Z,100658.00
2022-08-28T15:40:50.788Z,100655.00
2022-08-28T15:43:17.444Z,100663.00
2022-08-28T15:45:44.128Z,100657.00
2022-08-28T15:48:11.303Z,100670.00
2022-08-28T15:50:38.425Z,100657.00
2022-08-28T15:53:11.869Z,100664.00
2022-08-28T15:55:38.471Z,100648.00
2022-08-28T15:58:13.996Z,100652.00
2022-08-28T16:00:41.370Z,100653.00
2022-08-28T16:03:10.284Z,100662.00
2022-08-28T16:05:39.597Z,100651.00
2022-08-28T16:08:07.850Z,100655.00
2022-08-28T16:10:34.440Z,100655.00
2022-08-28T16:13:03.109Z,100649.00
2022-08-28T16:15:30.049Z,100649.00
2022-08-28T16:17:56.640Z,100656.00
2022-08-28T16:20:24.364Z,100651.00
2022-08-28T16:22:51.723Z,100654.00
2022-08-28T16:25:27.941Z,100653.00
2022-08-28T16:27:57.480Z,100651.00
2022-08-28T16:30:26.444Z,100645.00
2022-08-28T16:32:54.283Z,100651.00
2022-08-28T16:35:24.425Z,100644.00
2022-08-28T16:37:51.294Z,100641.00
2022-08-28T16:40:20.511Z,100643.00
2022-08-28T16:42:51.562Z,100647.00
2022-08-28T16:45:18.560Z,100639.00
2022-08-28T16:47:45.221Z,100651.00
2022-08-28T16:50:13.628Z,100648.00
2022-08-28T16:52:40.194Z,100641.00
2022-08-28T16:55:08.270Z,100651.00
2022-08-28T16:57:35.433Z,100641.00
2022-08-28T17:00:07.846Z,100649.00
2022-08-28T17:02:34.661Z,100623.00
2022-08-28T17:05:03.257Z,100649.00
2022-08-28T17:07:29.907Z,100637.00
2022-08-28T17:09:56.523Z,100649.00
2022-08-28T17:12:23.239Z,100650.00
2022-08-28T17:14:51.385Z,100651.00
2022-08-28T17:17:21.030Z,100655.00
2022-08-28T17:19:50.623Z,100647.00
2022-08-28T17:22:32.312Z,100647.00
2022-08-28T17:25:13.583Z,100658.00
2022-08-28T17:27:41.029Z,100644.00
2022-08-28T17:30:08.490Z,100653.00
2022-08-28T17:32:35.363Z,100657.00
2022-08-28T17:35:02.652Z,100657.00
2022-08-28T17:37:29.431Z,100655.00
2022-08-28T17:39:56.027Z,100662.00
2022-08-28T17:42:22.768Z,100664.00
2022-08-28T17:44:49.359Z,100660.00
2022-08-28T17:47:15.939Z,100656.00
2022-08-28T17:49:42.506Z,100665.00
2022-08-28T17:52:09.384Z,100671.00
2022-08-28T17:54:36.081Z,100670.00
2022-08-28T17:57:03.294Z,100676.00
2022-08-28T17:59:29.880Z,100677.00
2022-08-28T18:01:56.543Z,100670.00
2022-08-28T18:04:24.671Z,100681.00
2022-08-28T18:06:54.234Z,100678.00
2022-08-28T18:09:22.148Z,100683.00
2022-08-28T18:11:48.711Z,100692.00
2022-08-28T18:14:15.235Z,100690.00
2022-08-28T18:16:41.814Z,100685.00
2022-08-28T18:19:09.864Z,100701.00
2022-08-28T18:21:39.909Z,100695.00
2022-08-28T18:24:08.549Z,100704.00
2022-08-28T18:26:37.504Z,100699.00
2022-08-28T18:29:04.080Z,100706.00
2022-08-28T18:31:30.772Z,100708.00
2022-08-28T18:33:57.930Z,100706.00
2022-08-28T18:36:24.565Z,100706.00
2022-08-28T18:38:51.382Z,100714.00
2022-08-28T18:41:20.006Z,100713.00
2022-08-28T18:43:47.465Z,100721.00
2022-08-28T18:46:14.406Z,100707.00
2022-08-28T18:48:42.078Z,100712.00
2022-08-28T18:51:10.466Z,100710.00
2022-08-28T18:53:37.419Z,100720.00
2022-08-28T18:56:06.004Z,100713.00
2022-08-28T18:58:33.145Z,100717.00
2022-08-28T19:01:02.161Z,100714.00
2022-08-28T19:03:29.508Z,100727.00
2022-08-28T19:05:56.688Z,100731.00
2022-08-28T19:08:25.216Z,100724.00
2022-08-28T19:10:52.020Z,100728.00
2022-08-28T19:13:18.545Z,100730.00
2022-08-28T19:15:52.623Z,100737.00
2022-08-28T19:18:19.616Z,100729.00
2022-08-28T19:20:46.368Z,100731.00
2022-08-28T19:23:17.278Z,100735.00
2022-08-28T19:25:44.379Z,100741.00
2022-08-28T19:28:11.014Z,100739.00
2022-08-28T19:30:37.640Z,100729.00
2022-08-28T19:33:05.468Z,100746.00
2022-08-28T19:35:34.652Z,100748.00
2022-08-28T19:38:01.284Z,100743.00
2022-08-28T19:40:33.571Z,100749.00
2022-08-28T19:43:00.666Z,100754.00
2022-08-28T19:45:27.723Z,100761.00
2022-08-28T19:47:54.280Z,100750.00
2022-08-28T19:50:20.923Z,100753.00
2022-08-28T19:52:47.497Z,100759.00
2022-08-28T19:55:21.610Z,100758.00
2022-08-28T19:57:49.342Z,100769.00
2022-08-28T20:00:21.844Z,100765.00
2022-08-28T20:02:51.520Z,100755.00
2022-08-28T20:05:18.968Z,100764.00
2022-08-28T20:07:45.563Z,100770.00
2022-08-28T20:10:13.832Z,100768.00
2022-08-28T20:12:48.212Z,100772.00
2022-08-28T20:15:17.725Z,100772.00
2022-08-28T20:17:49.709Z,100773.00
2022-08-28T20:20:21.160Z,100768.00
2022-08-28T20:22:48.100Z,100779.00
2022-08-28T20:25:20.419Z,100779.00
2022-08-28T20:27:46.934Z,100781.00
2022-08-28T20:30:13.802Z,100791.00
2022-08-28T20:32:41.319Z,100792.00
2022-08-28T20:35:10.472Z,100793.00
2022-08-28T20:37:45.042Z,100798.00
2022-08-28T20:40:17.175Z,100790.00
2022-08-28T20:42:44.131Z,100790.00
2022-08-28T20:45:11.447Z,100797.00
2022-08-28T20:47:38.071Z,100789.00
2022-08-28T20:50:05.446Z,100788.00
2022-08-28T20:52:32.203Z,100797.00
2022-08-28T20:54:58.731Z,100795.00
2022-08-28T20:57:25.333Z,100804.00
2022-08-28T20:59:53.982Z,100797.00
2022-08-28T21:02:23.450Z,100795.00
2022-08-28T21:04:51.203Z,100781.00
2022-08-28T21:07:19.365Z,100793.00
2022-08-28T21:10:04.363Z,100794.00
2022-08-28T21:12:33.605Z,100803.00
2022-08-28T21:15:00.301Z,100797.00
2022-08-28T21:17:29.412Z,100796.00
2022-08-28T21:19:59.986Z,100804.00
2022-08-28T21:22:26.662Z,100806.00
2022-08-28T21:24:53.269Z,100805.00
2022-08-28T21:27:19.829Z,100797.00
2022-08-28T21:29:47.825Z,100806.00
2022-08-28T21:32:14.461Z,100802.00
2022-08-28T21:34:41.002Z,100809.00
2022-08-28T21:37:07.580Z,100809.00
2022-08-28T21:39:34.754Z,100800.00
2022-08-28T21:42:01.287Z,100806.00
2022-08-28T21:44:27.848Z,100802.00
2022-08-28T21:46:54.439Z,100797.00
2022-08-28T21:49:22.587Z,100802.00
2022-08-28T21:51:49.352Z,100802.00
2022-08-28T21:54:15.897Z,100796.00
2022-08-28T21:56:42.837Z,100802.00
2022-08-28T21:59:09.418Z,100804.00
2022-08-28T22:01:36.028Z,100807.00
2022-08-28T22:04:02.978Z,100811.00
2022-08-28T22:06:29.724Z,100820.00
2022-08-28T22:08:57.245Z,100818.00
2022-08-28T22:11:25.152Z,100819.00
2022-08-28T22:13:53.095Z,100823.00
2022-08-28T22:16:20.325Z,100823.00
2022-08-28T22:18:47.112Z,100824.00
2022-08-28T22:21:33.624Z,100830.00
2022-08-28T22:24:00.623Z,100822.00
2022-08-28T22:26:27.281Z,100813.00
2022-08-28T22:28:53.831Z,100825.00
2022-08-28T22:31:20.920Z,100821.00
2022-08-28T22:33:48.843Z,100813.00
2022-08-28T22:36:16.864Z,100816.00
2022-08-28T22:38:46.995Z,100825.00
2022-08-28T22:41:20.239Z,100822.00
2022-08-28T22:43:50.621Z,100827.00
2022-08-28T22:46:18.828Z,100823.00
2022-08-28T22:48:45.975Z,100828.00
2022-08-28T22:51:14.792Z,100831.00
2022-08-28T22:53:43.698Z,100826.00
2022-08-28T22:56:10.794Z,100831.00
2022-08-28T22:58:37.542Z,100834.00
2022-08-28T23:01:10.857Z,100846.00
2022-08-28T23:03:39.615Z,100839.00
2022-08-28T23:06:06.532Z,100834.00
2022-08-28T23:08:34.147Z,100831.00
2022-08-28T23:11:01.252Z,100835.00
2022-08-28T23:13:28.715Z,100839.00
2022-08-28T23:15:55.359Z,100834.00
2022-08-28T23:18:22.337Z,100838.00
2022-08-28T23:20:50.582Z,100833.00
2022-08-28T23:23:18.820Z,100837.00
2022-08-28T23:25:45.646Z,100832.00
2022-08-28T23:28:12.482Z,100837.00
2022-08-28T23:30:41.237Z,100837.00
2022-08-28T23:33:19.715Z,100836.00
2022-08-28T23:35:49.841Z,100822.00
2022-08-28T23:38:16.472Z,100838.00
2022-08-28T23:40:43.276Z,100836.00
2022-08-28T23:43:10.230Z,100834.00
2022-08-28T23:45:39.580Z,100830.00
2022-08-28T23:48:06.938Z,100831.00
2022-08-28T23:50:33.800Z,100825.00
2022-08-28T23:53:02.709Z,100827.00
2022-08-28T23:55:31.014Z,100836.00
2022-08-28T23:58:00.245Z,100821.00
